Time;durP1;ratioP1;P1;durP2;ratioP2;P2;SDS_P1;SDS_P2;PMS_P1;PMS_P2;Temp;Humidity;BMP_temperature;BMP_pressure;BME280_temperature;BME280_humidity;BME280_pressure;Samples;Min_cycle;Max_cycle;Signal;HPM_P1;HPM_P2
2022/07/23 00:00:44;;;;;;;15.75;9.40;;;;;;;;;;5027582;28;20044;-60
2022/07/23 00:03:09;;;;;;;13.00;9.50;;;;;;;;;;5026337;28;20021;-60
2022/07/23 00:05:35;;;;;;;13.13;9.00;;;;;;;;;;5027480;28;20075;-60
2022/07/23 00:08:01;;;;;;;11.30;8.65;;;;;;;;;;5025392;28;20029;-60
2022/07/23 00:10:26;;;;;;;12.60;8.35;;;;;;;;;;5026448;28;20435;-60
2022/07/23 00:12:51;;;;;;;13.45;8.55;;;;;;;;;;5025756;28;20025;-60
2022/07/23 00:15:17;;;;;;;10.85;8.50;;;;;;;;;;5024153;28;20053;-58
2022/07/23 00:17:42;;;;;;;11.50;8.27;;;;;;;;;;5025054;28;20025;-58
2022/07/23 00:20:08;;;;;;;11.73;8.57;;;;;;;;;;5021857;28;20120;-59
2022/07/23 00:22:33;;;;;;;9.32;7.90;;;;;;;;;;5024897;28;20018;-58
2022/07/23 00:24:59;;;;;;;10.82;7.88;;;;;;;;;;5023835;28;20059;-58
2022/07/23 00:27:24;;;;;;;12.13;8.32;;;;;;;;;;5022625;28;20108;-58
2022/07/23 00:29:50;;;;;;;12.27;8.27;;;;;;;;;;5024168;28;20036;-58
2022/07/23 00:32:15;;;;;;;13.95;7.75;;;;;;;;;;5019906;28;20117;-58
2022/07/23 00:34:41;;;;;;;11.30;7.82;;;;;;;;;;5022141;28;20108;-58
2022/07/23 00:37:06;;;;;;;11.18;8.32;;;;;;;;;;5023928;28;20033;-58
2022/07/23 00:39:31;;;;;;;13.65;8.43;;;;;;;;;;5023045;28;20029;-58
2022/07/23 00:41:57;;;;;;;11.20;8.38;;;;;;;;;;5022319;28;20045;-58
2022/07/23 00:44:28;;;;;;;10.93;8.07;;;;;;;;;;5019844;28;20045;-58
2022/07/23 00:46:56;;;;;;;14.07;8.38;;;;;;;;;;5020397;28;20026;-59
2022/07/23 00:49:27;;;;;;;12.38;8.13;;;;;;;;;;5025149;28;20399;-58
2022/07/23 00:51:53;;;;;;;11.50;8.82;;;;;;;;;;5021992;28;20029;-59
2022/07/23 00:54:21;;;;;;;11.80;8.98;;;;;;;;;;5028453;28;20036;-58
2022/07/23 00:56:47;;;;;;;10.75;8.68;;;;;;;;;;5027529;28;20529;-59
2022/07/23 00:59:13;;;;;;;14.27;9.02;;;;;;;;;;5025066;28;20045;-58
2022/07/23 01:01:39;;;;;;;14.40;9.48;;;;;;;;;;5026486;28;20018;-58
2022/07/23 01:04:04;;;;;;;12.68;9.75;;;;;;;;;;5026819;28;20121;-58
2022/07/23 01:06:34;;;;;;;12.80;8.40;;;;;;;;;;5024848;28;20025;-58
2022/07/23 01:09:00;;;;;;;11.82;9.45;;;;;;;;;;5025143;28;20121;-58
2022/07/23 01:11:25;;;;;;;12.93;9.02;;;;;;;;;;5024256;28;20101;-58
2022/07/23 01:13:50;;;;;;;10.90;8.00;;;;;;;;;;5028006;28;20037;-58
2022/07/23 01:16:16;;;;;;;12.63;8.70;;;;;;;;;;5028562;28;20061;-59
2022/07/23 01:18:41;;;;;;;12.85;9.30;;;;;;;;;;5034682;28;20029;-58
2022/07/23 01:21:12;;;;;;;11.60;9.18;;;;;;;;;;5030491;28;20487;-58
2022/07/23 01:23:38;;;;;;;11.57;9.05;;;;;;;;;;5034778;28;20115;-58
2022/07/23 01:26:03;;;;;;;12.25;8.07;;;;;;;;;;5035491;28;20112;-58
2022/07/23 01:28:28;;;;;;;13.85;8.82;;;;;;;;;;5029268;28;20701;-58
2022/07/23 01:30:54;;;;;;;15.35;8.90;;;;;;;;;;5027501;28;20017;-58
2022/07/23 01:33:19;;;;;;;13.32;9.32;;;;;;;;;;5031930;28;20504;-58
2022/07/23 01:35:45;;;;;;;13.25;9.43;;;;;;;;;;5031486;28;20059;-58
2022/07/23 01:38:10;;;;;;;14.90;9.07;;;;;;;;;;5028326;28;20075;-58
2022/07/23 01:40:35;;;;;;;13.57;9.32;;;;;;;;;;5031518;28;20144;-58
2022/07/23 01:43:01;;;;;;;14.35;8.88;;;;;;;;;;5031002;28;20022;-60
2022/07/23 01:45:26;;;;;;;12.43;9.82;;;;;;;;;;5032335;28;20037;-60
2022/07/23 01:47:51;;;;;;;13.80;9.23;;;;;;;;;;5028403;28;20495;-60
2022/07/23 01:50:17;;;;;;;13.85;9.75;;;;;;;;;;5030342;28;20436;-60
2022/07/23 01:52:42;;;;;;;15.20;8.90;;;;;;;;;;5024828;28;20025;-60
2022/07/23 01:55:08;;;;;;;15.30;8.63;;;;;;;;;;5031862;28;20037;-60
2022/07/23 01:57:33;;;;;;;13.23;9.10;;;;;;;;;;5036159;28;20561;-60
2022/07/23 01:59:59;;;;;;;14.23;9.10;;;;;;;;;;5030426;28;20411;-60
2022/07/23 02:02:24;;;;;;;11.68;9.02;;;;;;;;;;5028074;28;20391;-60
2022/07/23 02:04:50;;;;;;;12.63;8.95;;;;;;;;;;5029615;28;20056;-60
2022/07/23 02:07:15;;;;;;;11.45;8.65;;;;;;;;;;5029563;28;20475;-60
2022/07/23 02:09:40;;;;;;;13.57;9.27;;;;;;;;;;5032379;28;20033;-60
2022/07/23 02:12:06;;;;;;;12.73;8.95;;;;;;;;;;5029332;28;20099;-60
2022/07/23 02:14:31;;;;;;;13.23;9.48;;;;;;;;;;5029636;28;20368;-60
2022/07/23 02:16:57;;;;;;;12.02;8.73;;;;;;;;;;5027080;28;20399;-60
2022/07/23 02:19:22;;;;;;;15.80;9.50;;;;;;;;;;5032150;28;20068;-60
2022/07/23 02:21:48;;;;;;;13.52;9.77;;;;;;;;;;5030785;28;20091;-60
2022/07/23 02:24:13;;;;;;;15.82;9.35;;;;;;;;;;5030699;28;20116;-60
2022/07/23 02:26:39;;;;;;;13.70;9.20;;;;;;;;;;5029223;28;20040;-60
2022/07/23 02:29:05;;;;;;;13.82;9.68;;;;;;;;;;5028783;28;20042;-60
2022/07/23 02:31:31;;;;;;;21.23;10.00;;;;;;;;;;5023994;28;20040;-60
2022/07/23 02:33:56;;;;;;;13.45;10.13;;;;;;;;;;5027193;28;20080;-60
2022/07/23 02:36:23;;;;;;;13.57;9.80;;;;;;;;;;5027937;28;20471;-60
2022/07/23 02:38:49;;;;;;;13.68;9.85;;;;;;;;;;5028218;28;20029;-60
2022/07/23 02:41:14;;;;;;;16.48;10.48;;;;;;;;;;5026506;28;20021;-60
2022/07/23 02:43:39;;;;;;;14.85;10.23;;;;;;;;;;5025928;28;20025;-60
2022/07/23 02:46:05;;;;;;;16.83;9.57;;;;;;;;;;5028466;28;20055;-60
2022/07/23 02:48:30;;;;;;;16.35;10.40;;;;;;;;;;5023338;28;20060;-61
2022/07/23 02:50:56;;;;;;;13.73;10.60;;;;;;;;;;5027095;28;20075;-60
2022/07/23 02:53:25;;;;;;;15.73;9.98;;;;;;;;;;5031802;28;20033;-60
2022/07/23 02:55:50;;;;;;;15.05;10.52;;;;;;;;;;5033420;28;20037;-60
2022/07/23 02:58:16;;;;;;;16.00;10.48;;;;;;;;;;5028700;28;20033;-59
2022/07/23 03:00:41;;;;;;;13.25;9.52;;;;;;;;;;5028161;28;20403;-60
2022/07/23 03:03:07;;;;;;;12.77;9.32;;;;;;;;;;5027713;28;20483;-60
2022/07/23 03:05:33;;;;;;;15.30;10.57;;;;;;;;;;5027587;28;20036;-60
2022/07/23 03:07:58;;;;;;;14.30;10.32;;;;;;;;;;5028833;28;20025;-59
2022/07/23 03:10:24;;;;;;;14.52;10.25;;;;;;;;;;5027182;28;20032;-59
2022/07/23 03:12:50;;;;;;;12.90;9.35;;;;;;;;;;5030005;28;20022;-59
2022/07/23 03:15:15;;;;;;;14.88;9.85;;;;;;;;;;5025678;28;20037;-59
2022/07/23 03:17:40;;;;;;;13.48;10.30;;;;;;;;;;5029482;28;20029;-59
2022/07/23 03:20:07;;;;;;;13.38;9.82;;;;;;;;;;5024115;28;20029;-59
2022/07/23 03:22:32;;;;;;;14.57;9.68;;;;;;;;;;5028920;28;20045;-59
2022/07/23 03:24:57;;;;;;;14.43;10.13;;;;;;;;;;5031577;28;20444;-59
2022/07/23 03:27:28;;;;;;;13.93;10.02;;;;;;;;;;5029862;28;20067;-59
2022/07/23 03:29:55;;;;;;;13.73;10.05;;;;;;;;;;5027263;28;20026;-59
2022/07/23 03:32:22;;;;;;;13.05;9.30;;;;;;;;;;5027306;28;20428;-59
2022/07/23 03:34:48;;;;;;;11.85;9.32;;;;;;;;;;5023480;28;20567;-59
2022/07/23 03:37:13;;;;;;;13.02;8.82;;;;;;;;;;5026140;28;20037;-59
2022/07/23 03:39:39;;;;;;;13.45;10.15;;;;;;;;;;5022464;28;20037;-59
2022/07/23 03:42:04;;;;;;;14.57;10.43;;;;;;;;;;5029314;28;20057;-59
2022/07/23 03:44:30;;;;;;;13.45;9.65;;;;;;;;;;5031965;28;20075;-59
2022/07/23 03:46:55;;;;;;;14.40;9.52;;;;;;;;;;5032672;28;20083;-59
2022/07/23 03:49:20;;;;;;;17.85;9.98;;;;;;;;;;5030470;28;20029;-59
2022/07/23 03:51:46;;;;;;;14.68;9.68;;;;;;;;;;5027489;28;20018;-60
2022/07/23 03:54:11;;;;;;;14.10;9.85;;;;;;;;;;5033820;28;20036;-59
2022/07/23 03:56:37;;;;;;;16.30;10.82;;;;;;;;;;5027695;28;20104;-60
2022/07/23 03:59:02;;;;;;;18.67;10.77;;;;;;;;;;5028247;28;20037;-59
2022/07/23 04:01:28;;;;;;;15.32;10.48;;;;;;;;;;5025671;28;20467;-59
2022/07/23 04:03:53;;;;;;;14.52;10.35;;;;;;;;;;5031855;28;20025;-59
2022/07/23 04:06:18;;;;;;;14.20;10.25;;;;;;;;;;5026056;28;20034;-59
2022/07/23 04:08:44;;;;;;;15.02;10.25;;;;;;;;;;5030455;28;20081;-59
2022/07/23 04:11:09;;;;;;;17.20;11.02;;;;;;;;;;5025938;28;20024;-59
2022/07/23 04:13:35;;;;;;;18.80;11.10;;;;;;;;;;5022860;28;20033;-59
2022/07/23 04:16:00;;;;;;;13.65;10.65;;;;;;;;;;5027788;28;20029;-59
2022/07/23 04:18:26;;;;;;;16.63;11.18;;;;;;;;;;5028559;28;20025;-59
2022/07/23 04:20:52;;;;;;;14.07;10.70;;;;;;;;;;5026022;28;20652;-61
2022/07/23 04:23:17;;;;;;;18.50;11.55;;;;;;;;;;5029281;28;20029;-59
2022/07/23 04:25:43;;;;;;;14.90;11.50;;;;;;;;;;5023274;28;20040;-59
2022/07/23 04:28:08;;;;;;;18.27;10.93;;;;;;;;;;5020110;28;20034;-59
2022/07/23 04:30:34;;;;;;;15.63;11.52;;;;;;;;;;5029004;28;20387;-59
2022/07/23 04:32:59;;;;;;;17.00;11.52;;;;;;;;;;5024534;28;20028;-59
2022/07/23 04:35:25;;;;;;;16.02;11.20;;;;;;;;;;5026264;28;20073;-59
2022/07/23 04:37:50;;;;;;;18.38;11.65;;;;;;;;;;5025646;28;20056;-59
2022/07/23 04:40:16;;;;;;;15.77;11.38;;;;;;;;;;5021183;28;20503;-59
2022/07/23 04:42:41;;;;;;;17.88;12.25;;;;;;;;;;5027358;28;20017;-59
2022/07/23 04:45:07;;;;;;;14.18;10.85;;;;;;;;;;5021981;28;20029;-60
2022/07/23 04:47:33;;;;;;;17.85;11.30;;;;;;;;;;5026450;28;20384;-60
2022/07/23 04:49:58;;;;;;;15.18;11.40;;;;;;;;;;5029192;28;20044;-59
2022/07/23 04:52:23;;;;;;;16.80;11.90;;;;;;;;;;5028730;28;20029;-59
2022/07/23 04:54:49;;;;;;;17.77;11.85;;;;;;;;;;5029584;28;20491;-60
2022/07/23 04:57:15;;;;;;;15.05;11.23;;;;;;;;;;5027225;28;20029;-59
2022/07/23 04:59:40;;;;;;;16.25;11.57;;;;;;;;;;5033297;28;20036;-60
2022/07/23 05:02:05;;;;;;;18.50;11.88;;;;;;;;;;5033222;28;20025;-59
2022/07/23 05:04:31;;;;;;;16.98;11.10;;;;;;;;;;5024555;28;20109;-60
2022/07/23 05:06:57;;;;;;;18.65;11.75;;;;;;;;;;5027599;28;20025;-59
2022/07/23 05:09:22;;;;;;;15.10;11.10;;;;;;;;;;5023604;28;20025;-59
2022/07/23 05:11:48;;;;;;;17.30;11.48;;;;;;;;;;5023317;28;20033;-59
2022/07/23 05:14:13;;;;;;;16.05;11.60;;;;;;;;;;5026512;28;20026;-59
2022/07/23 05:16:39;;;;;;;17.38;12.20;;;;;;;;;;5024712;28;20048;-59
2022/07/23 05:19:04;;;;;;;18.42;11.95;;;;;;;;;;5024743;28;20058;-59
2022/07/23 05:21:30;;;;;;;15.60;10.65;;;;;;;;;;5026689;28;20022;-59
2022/07/23 05:23:55;;;;;;;15.15;11.20;;;;;;;;;;5028588;28;20022;-59
2022/07/23 05:26:21;;;;;;;16.23;11.48;;;;;;;;;;5021752;28;20108;-59
2022/07/23 05:28:46;;;;;;;17.83;11.38;;;;;;;;;;5023608;28;20021;-60
2022/07/23 05:31:11;;;;;;;17.30;11.00;;;;;;;;;;5024758;28;20025;-60
2022/07/23 05:33:37;;;;;;;15.50;11.00;;;;;;;;;;5028266;28;20403;-60
2022/07/23 05:36:03;;;;;;;16.98;11.15;;;;;;;;;;5030929;28;20630;-60
2022/07/23 05:38:29;;;;;;;17.00;11.13;;;;;;;;;;5024158;28;20112;-59
2022/07/23 05:40:55;;;;;;;18.77;11.98;;;;;;;;;;5020339;28;20039;-59
2022/07/23 05:43:21;;;;;;;13.95;10.30;;;;;;;;;;5020427;28;20029;-59
2022/07/23 05:45:46;;;;;;;15.10;11.20;;;;;;;;;;5024566;28;20041;-59
2022/07/23 05:48:12;;;;;;;17.40;11.50;;;;;;;;;;5020931;28;20040;-58
2022/07/23 05:50:38;;;;;;;16.27;11.15;;;;;;;;;;5027355;28;20037;-59
2022/07/23 05:53:03;;;;;;;14.75;10.45;;;;;;;;;;5028857;28;20041;-59
2022/07/23 05:55:31;;;;;;;17.33;10.95;;;;;;;;;;5028693;28;20033;-59
2022/07/23 05:57:57;;;;;;;16.63;10.88;;;;;;;;;;5027609;28;20018;-59
2022/07/23 06:00:22;;;;;;;16.33;10.75;;;;;;;;;;5028003;28;20029;-59
2022/07/23 06:02:48;;;;;;;14.18;10.60;;;;;;;;;;5029000;28;20063;-59
2022/07/23 06:05:13;;;;;;;12.85;10.32;;;;;;;;;;5029263;28;20032;-59
2022/07/23 06:07:39;;;;;;;17.05;11.25;;;;;;;;;;5032499;28;20025;-59
2022/07/23 06:10:05;;;;;;;14.50;10.73;;;;;;;;;;5025655;28;20032;-59
2022/07/23 06:12:31;;;;;;;17.63;10.30;;;;;;;;;;5027673;28;20036;-59
2022/07/23 06:14:56;;;;;;;13.52;10.77;;;;;;;;;;5032974;28;20033;-59
2022/07/23 06:17:22;;;;;;;15.32;10.77;;;;;;;;;;5031896;28;20021;-57
2022/07/23 06:19:47;;;;;;;13.45;10.38;;;;;;;;;;5030315;28;20025;-58
2022/07/23 06:22:13;;;;;;;14.43;10.18;;;;;;;;;;5025543;28;20038;-57
2022/07/23 06:24:38;;;;;;;15.20;10.63;;;;;;;;;;5028353;28;20507;-58
2022/07/23 06:27:04;;;;;;;16.08;11.05;;;;;;;;;;5027650;28;20033;-57
2022/07/23 06:29:29;;;;;;;13.15;10.55;;;;;;;;;;5035571;28;20120;-57
2022/07/23 06:31:55;;;;;;;21.52;11.07;;;;;;;;;;5024471;28;20030;-57
2022/07/23 06:34:20;;;;;;;18.08;11.93;;;;;;;;;;5027055;28;20275;-57
2022/07/23 06:36:46;;;;;;;18.38;11.40;;;;;;;;;;5034525;28;20543;-57
2022/07/23 06:39:11;;;;;;;17.27;11.82;;;;;;;;;;5030901;28;20040;-57
2022/07/23 06:41:36;;;;;;;15.43;10.98;;;;;;;;;;5026272;28;20087;-57
2022/07/23 06:44:02;;;;;;;14.93;11.38;;;;;;;;;;5025498;28;20021;-56
2022/07/23 06:46:28;;;;;;;14.95;11.13;;;;;;;;;;5027086;28;20036;-56
2022/07/23 06:48:53;;;;;;;16.85;11.90;;;;;;;;;;5026011;28;20022;-57
2022/07/23 06:51:19;;;;;;;16.40;10.73;;;;;;;;;;5030322;28;20044;-57
2022/07/23 06:53:44;;;;;;;17.67;11.05;;;;;;;;;;5034059;28;20041;-56
2022/07/23 06:56:10;;;;;;;14.43;11.00;;;;;;;;;;5028714;28;20032;-57
2022/07/23 06:58:35;;;;;;;16.50;10.95;;;;;;;;;;5028207;28;20036;-57
2022/07/23 07:01:00;;;;;;;20.15;11.20;;;;;;;;;;5034534;28;20040;-55
2022/07/23 07:03:26;;;;;;;16.88;11.52;;;;;;;;;;5030787;28;20061;-57
2022/07/23 07:05:52;;;;;;;17.75;11.40;;;;;;;;;;5031635;28;20036;-57
2022/07/23 07:08:18;;;;;;;16.85;11.23;;;;;;;;;;5028525;28;20025;-55
2022/07/23 07:10:44;;;;;;;13.45;10.50;;;;;;;;;;5027345;28;20041;-57
2022/07/23 07:13:09;;;;;;;14.98;10.82;;;;;;;;;;5026679;28;20054;-57
2022/07/23 07:15:35;;;;;;;15.82;11.05;;;;;;;;;;5028655;28;20033;-57
2022/07/23 07:18:00;;;;;;;16.50;10.93;;;;;;;;;;5027409;28;20541;-57
2022/07/23 07:20:26;;;;;;;14.20;10.35;;;;;;;;;;5027685;28;20116;-56
2022/07/23 07:22:51;;;;;;;15.38;10.80;;;;;;;;;;5027434;28;20029;-56
2022/07/23 07:25:16;;;;;;;16.55;11.13;;;;;;;;;;5034336;28;20033;-57
2022/07/23 07:27:43;;;;;;;16.20;10.75;;;;;;;;;;5025332;28;20025;-57
2022/07/23 07:30:10;;;;;;;18.42;11.45;;;;;;;;;;5026333;28;20045;-57
2022/07/23 07:32:36;;;;;;;14.43;10.73;;;;;;;;;;5021786;28;20040;-55
2022/07/23 07:35:03;;;;;;;18.83;11.55;;;;;;;;;;5028991;28;20045;-57
2022/07/23 07:37:29;;;;;;;13.88;10.32;;;;;;;;;;5027647;28;20109;-57
2022/07/23 07:39:54;;;;;;;15.73;10.15;;;;;;;;;;5026939;28;20120;-57
2022/07/23 07:42:20;;;;;;;13.50;10.13;;;;;;;;;;5027638;28;20060;-55
2022/07/23 07:44:45;;;;;;;14.77;11.38;;;;;;;;;;5023918;28;20022;-55
2022/07/23 07:47:11;;;;;;;23.42;12.98;;;;;;;;;;5027424;28;20629;-55
2022/07/23 07:49:36;;;;;;;21.85;13.13;;;;;;;;;;5033153;28;20072;-55
2022/07/23 07:52:02;;;;;;;18.50;12.73;;;;;;;;;;5032226;28;20033;-55
2022/07/23 07:54:27;;;;;;;15.57;11.65;;;;;;;;;;5028997;28;20057;-56
2022/07/23 07:56:53;;;;;;;15.02;10.95;;;;;;;;;;5029734;28;20028;-56
2022/07/23 07:59:18;;;;;;;15.60;11.52;;;;;;;;;;5027887;28;20499;-56
2022/07/23 08:01:44;;;;;;;15.70;11.77;;;;;;;;;;5027170;28;20022;-56
2022/07/23 08:04:09;;;;;;;17.52;11.82;;;;;;;;;;5023570;28;20036;-56
2022/07/23 08:06:34;;;;;;;16.38;11.15;;;;;;;;;;5028273;28;20101;-57
2022/07/23 08:09:00;;;;;;;15.18;11.60;;;;;;;;;;5030644;28;20022;-57
2022/07/23 08:11:25;;;;;;;14.88;11.55;;;;;;;;;;5025711;28;20021;-56
2022/07/23 08:13:51;;;;;;;15.40;11.48;;;;;;;;;;5024312;28;20483;-56
2022/07/23 08:16:16;;;;;;;16.70;11.95;;;;;;;;;;5021598;28;20025;-56
2022/07/23 08:18:41;;;;;;;17.83;12.15;;;;;;;;;;5023385;28;20105;-61
2022/07/23 08:21:07;;;;;;;16.58;12.43;;;;;;;;;;5028766;28;20017;-60
2022/07/23 08:23:32;;;;;;;17.33;11.70;;;;;;;;;;5027553;28;20017;-61
2022/07/23 08:25:59;;;;;;;18.05;11.80;;;;;;;;;;5029507;28;20439;-61
2022/07/23 08:28:25;;;;;;;17.50;11.90;;;;;;;;;;5026001;28;20196;-61
2022/07/23 08:30:50;;;;;;;16.52;11.52;;;;;;;;;;5028030;28;20025;-62
2022/07/23 08:33:17;;;;;;;16.02;11.30;;;;;;;;;;5026181;28;20029;-61
2022/07/23 08:35:52;;;;;;;16.30;11.55;;;;;;;;;;5021926;28;20510;-61
2022/07/23 08:38:20;;;;;;;18.38;11.73;;;;;;;;;;5022018;28;20539;-60
2022/07/23 08:40:48;;;;;;;14.80;11.33;;;;;;;;;;5026205;28;20391;-60
2022/07/23 08:43:22;;;;;;;14.38;11.40;;;;;;;;;;5026308;28;20411;-60
2022/07/23 08:45:49;;;;;;;15.07;11.80;;;;;;;;;;5022589;28;20018;-61
2022/07/23 08:48:20;;;;;;;15.18;11.93;;;;;;;;;;5025726;28;20427;-60
2022/07/23 08:50:51;;;;;;;14.55;12.00;;;;;;;;;;5027765;28;20030;-59
2022/07/23 08:53:18;;;;;;;19.05;12.40;;;;;;;;;;5030922;28;20021;-61
2022/07/23 08:55:45;;;;;;;15.45;11.73;;;;;;;;;;5026386;28;20033;-61
2022/07/23 08:58:11;;;;;;;16.15;11.30;;;;;;;;;;5028130;28;20029;-61
2022/07/23 09:00:37;;;;;;;19.98;12.43;;;;;;;;;;5025403;28;20025;-60
2022/07/23 09:03:02;;;;;;;16.85;12.55;;;;;;;;;;5027745;28;20459;-61
2022/07/23 09:05:28;;;;;;;16.25;11.38;;;;;;;;;;5025932;28;20116;-62
2022/07/23 09:08:05;;;;;;;13.10;11.20;;;;;;;;;;5027435;28;20087;-63
2022/07/23 09:10:43;;;;;;;13.20;10.45;;;;;;;;;;5023443;28;20628;-62
2022/07/23 09:13:29;;;;;;;16.83;11.30;;;;;;;;;;5021192;28;20030;-62
2022/07/23 09:15:57;;;;;;;16.92;12.35;;;;;;;;;;5021521;28;20045;-62
2022/07/23 09:18:33;;;;;;;15.17;11.57;;;;;;;;;;5026174;28;20059;-62
2022/07/23 09:21:38;;;;;;;19.20;11.90;;;;;;;;;;5024862;28;20618;-63
2022/07/23 09:24:06;;;;;;;14.65;11.45;;;;;;;;;;5003730;28;20042;-62
2022/07/23 09:26:46;;;;;;;14.40;10.60;;;;;;;;;;5022498;28;20049;-60
2022/07/23 09:29:13;;;;;;;16.45;11.27;;;;;;;;;;5022102;28;20045;-62
2022/07/23 09:31:42;;;;;;;14.77;11.30;;;;;;;;;;5025019;28;20037;-62
2022/07/23 09:34:35;;;;;;;14.20;11.00;;;;;;;;;;5022992;28;20586;-62
2022/07/23 09:37:18;;;;;;;16.92;11.10;;;;;;;;;;5026641;28;20041;-63
2022/07/23 09:39:47;;;;;;;14.27;10.40;;;;;;;;;;5030134;28;20529;-63
2022/07/23 09:42:17;;;;;;;13.48;10.50;;;;;;;;;;5026415;28;20091;-63
2022/07/23 09:44:44;;;;;;;12.77;10.45;;;;;;;;;;5029992;28;20037;-63
2022/07/23 09:47:10;;;;;;;15.25;11.13;;;;;;;;;;5033213;28;20083;-62
2022/07/23 09:49:36;;;;;;;14.13;10.57;;;;;;;;;;5030857;28;20444;-62
2022/07/23 09:52:02;;;;;;;13.75;10.70;;;;;;;;;;5029721;28;20071;-62
2022/07/23 09:54:33;;;;;;;12.73;10.48;;;;;;;;;;5029002;28;20121;-63
2022/07/23 09:57:02;;;;;;;14.50;11.02;;;;;;;;;;5033072;28;20052;-62
2022/07/23 09:59:30;;;;;;;14.77;11.07;;;;;;;;;;5027919;28;20251;-63
2022/07/23 10:01:59;;;;;;;13.98;10.50;;;;;;;;;;5029138;28;20025;-63
2022/07/23 10:04:26;;;;;;;13.73;10.77;;;;;;;;;;5027872;28;20044;-62
2022/07/23 10:06:54;;;;;;;12.68;10.85;;;;;;;;;;5034528;28;20122;-63
2022/07/23 10:09:33;;;;;;;12.98;10.63;;;;;;;;;;5028248;28;20041;-63
2022/07/23 10:12:30;;;;;;;13.75;10.55;;;;;;;;;;5025818;28;20028;-63
2022/07/23 10:14:50;;;;;;;15.43;11.43;;;;;;;;;;5026217;28;20132;-63
2022/07/23 10:17:16;;;;;;;15.63;11.35;;;;;;;;;;5031856;28;20033;-62
2022/07/23 10:19:42;;;;;;;14.13;10.77;;;;;;;;;;5030227;28;20087;-63
2022/07/23 10:22:38;;;;;;;15.73;10.98;;;;;;;;;;5028415;28;20024;-63
2022/07/23 10:25:09;;;;;;;18.25;12.18;;;;;;;;;;5023997;28;20037;-63
2022/07/23 10:27:59;;;;;;;18.10;13.38;;;;;;;;;;5025556;28;20376;-62
2022/07/23 10:30:30;;;;;;;15.82;11.45;;;;;;;;;;5028017;28;20029;-61
2022/07/23 10:33:24;;;;;;;11.77;10.40;;;;;;;;;;5026350;28;20009;-61
2022/07/23 10:36:19;;;;;;;12.57;10.38;;;;;;;;;;5027451;28;20065;-61
2022/07/23 10:39:19;;;;;;;12.85;10.82;;;;;;;;;;5028063;28;20082;-62
2022/07/23 10:41:44;;;;;;;14.43;11.13;;;;;;;;;;5006365;28;20042;-61
2022/07/23 10:44:17;;;;;;;19.08;11.07;;;;;;;;;;5030471;28;20029;-62
2022/07/23 10:49:28;;;;;;;12.40;10.60;;;;;;;;;;5028686;28;20029;-61
2022/07/23 10:52:18;;;;;;;14.60;11.00;;;;;;;;;;5032472;28;20451;-62
2022/07/23 10:54:45;;;;;;;12.60;11.07;;;;;;;;;;5041228;28;20509;-62
2022/07/23 10:57:12;;;;;;;13.02;11.10;;;;;;;;;;5031833;28;20110;-62
2022/07/23 11:02:31;;;;;;;11.98;10.77;;;;;;;;;;5028941;28;20080;-61
2022/07/23 11:05:08;;;;;;;14.30;11.23;;;;;;;;;;5025731;28;20030;-62
2022/07/23 11:07:35;;;;;;;13.00;10.48;;;;;;;;;;5027233;28;20029;-63
2022/07/23 11:10:02;;;;;;;13.40;10.75;;;;;;;;;;5025769;28;20475;-63
2022/07/23 11:12:27;;;;;;;12.52;11.02;;;;;;;;;;5026310;28;20017;-64
2022/07/23 11:15:13;;;;;;;13.52;10.95;;;;;;;;;;5028384;28;20450;-63
2022/07/23 11:17:59;;;;;;;13.65;11.15;;;;;;;;;;5027781;28;20448;-62
2022/07/23 11:20:25;;;;;;;16.60;12.30;;;;;;;;;;5029754;28;20033;-63
2022/07/23 11:22:55;;;;;;;12.18;10.60;;;;;;;;;;5025200;28;20025;-63
2022/07/23 11:25:29;;;;;;;11.82;10.60;;;;;;;;;;5026808;28;20080;-63
2022/07/23 11:28:07;;;;;;;12.02;10.57;;;;;;;;;;5027790;28;20639;-62
2022/07/23 11:30:32;;;;;;;12.70;10.40;;;;;;;;;;5024850;28;20025;-63
2022/07/23 11:33:07;;;;;;;13.50;10.25;;;;;;;;;;5020618;28;20116;-62
2022/07/23 11:35:33;;;;;;;12.85;10.68;;;;;;;;;;5024915;28;20033;-62
2022/07/23 11:38:08;;;;;;;14.70;11.05;;;;;;;;;;5025851;28;20023;-63
2022/07/23 11:40:34;;;;;;;11.82;9.70;;;;;;;;;;5024931;28;20033;-63
2022/07/23 11:43:03;;;;;;;14.45;10.38;;;;;;;;;;5029444;28;20029;-62
2022/07/23 11:45:36;;;;;;;10.80;9.70;;;;;;;;;;5027880;28;20022;-63
2022/07/23 11:48:03;;;;;;;11.30;10.10;;;;;;;;;;5027250;28;20518;-63
2022/07/23 11:50:29;;;;;;;11.93;10.35;;;;;;;;;;5028200;28;20034;-63
2022/07/23 11:52:55;;;;;;;12.18;9.95;;;;;;;;;;5028542;28;20092;-63
2022/07/23 11:55:20;;;;;;;11.80;10.60;;;;;;;;;;5027761;28;20446;-63
2022/07/23 11:57:47;;;;;;;11.98;10.38;;;;;;;;;;5028763;28;20029;-63
2022/07/23 12:00:17;;;;;;;12.13;10.85;;;;;;;;;;5025795;28;20384;-63
2022/07/23 12:02:45;;;;;;;12.88;10.38;;;;;;;;;;5024844;28;20056;-63
2022/07/23 12:05:35;;;;;;;11.85;10.27;;;;;;;;;;5033051;28;20036;-63
2022/07/23 12:08:04;;;;;;;12.48;10.73;;;;;;;;;;5027325;28;20549;-63
2022/07/23 12:10:51;;;;;;;11.48;10.27;;;;;;;;;;5026142;28;20037;-63
2022/07/23 12:13:20;;;;;;;13.57;10.75;;;;;;;;;;5027085;28;20021;-62
2022/07/23 12:15:50;;;;;;;11.82;10.18;;;;;;;;;;5024747;28;20029;-63
2022/07/23 12:18:21;;;;;;;11.82;10.52;;;;;;;;;;5030071;28;20044;-63
2022/07/23 12:20:53;;;;;;;11.95;10.05;;;;;;;;;;5026932;28;20020;-63
2022/07/23 12:23:21;;;;;;;12.20;9.95;;;;;;;;;;5040395;28;20503;-63
2022/07/23 12:25:49;;;;;;;14.03;9.53;;;;;;;;;;5026547;28;20060;-64
2022/07/23 12:28:17;;;;;;;11.70;9.50;;;;;;;;;;5025654;28;20272;-63
2022/07/23 12:30:47;;;;;;;13.85;10.20;;;;;;;;;;5021481;28;20036;-63
2022/07/23 12:33:51;;;;;;;11.98;10.43;;;;;;;;;;5024995;28;20519;-63
2022/07/23 12:36:16;;;;;;;11.95;9.73;;;;;;;;;;4986621;28;20034;-63
2022/07/23 12:38:47;;;;;;;11.45;10.00;;;;;;;;;;5018752;28;20033;-62
2022/07/23 12:41:12;;;;;;;13.50;10.30;;;;;;;;;;5026770;28;20061;-63
2022/07/23 12:43:43;;;;;;;13.93;9.77;;;;;;;;;;5035311;28;20049;-63
2022/07/23 12:46:16;;;;;;;11.90;10.10;;;;;;;;;;5027942;28;20488;-63
2022/07/23 12:48:51;;;;;;;10.93;9.70;;;;;;;;;;5026762;28;20584;-62
2022/07/23 12:51:30;;;;;;;10.52;9.45;;;;;;;;;;5025717;28;20415;-63
2022/07/23 12:54:06;;;;;;;10.85;9.75;;;;;;;;;;5028433;28;20029;-62
2022/07/23 12:56:40;;;;;;;10.73;9.63;;;;;;;;;;5025427;28;20041;-62
2022/07/23 12:59:10;;;;;;;12.23;9.40;;;;;;;;;;5024969;28;20436;-62
2022/07/23 13:01:41;;;;;;;11.07;9.02;;;;;;;;;;5023953;28;20423;-62
2022/07/23 13:04:11;;;;;;;11.82;9.90;;;;;;;;;;5021625;28;20064;-62
2022/07/23 13:06:47;;;;;;;13.80;10.23;;;;;;;;;;5028283;28;20025;-63
2022/07/23 13:09:18;;;;;;;10.13;9.10;;;;;;;;;;5031655;28;20025;-62
2022/07/23 13:11:46;;;;;;;10.57;9.20;;;;;;;;;;5027979;28;20035;-63
2022/07/23 13:14:13;;;;;;;11.10;9.55;;;;;;;;;;5031609;28;20040;-62
2022/07/23 13:16:40;;;;;;;10.93;9.68;;;;;;;;;;5026954;28;20493;-62
2022/07/23 13:19:06;;;;;;;11.15;8.75;;;;;;;;;;5031347;28;20033;-62
2022/07/23 13:21:32;;;;;;;9.95;8.77;;;;;;;;;;5029989;28;20033;-63
2022/07/23 13:23:57;;;;;;;11.30;9.20;;;;;;;;;;5032700;28;20026;-62
2022/07/23 13:26:23;;;;;;;9.70;8.52;;;;;;;;;;5031543;28;20413;-63
2022/07/23 13:28:50;;;;;;;11.70;8.60;;;;;;;;;;5025155;28;20038;-62
2022/07/23 13:31:16;;;;;;;9.95;8.95;;;;;;;;;;5027981;28;20041;-62
2022/07/23 13:33:41;;;;;;;9.88;8.88;;;;;;;;;;5029391;28;20021;-62
2022/07/23 13:36:07;;;;;;;9.85;8.85;;;;;;;;;;5029768;28;20073;-63
2022/07/23 13:38:32;;;;;;;9.70;8.70;;;;;;;;;;5026330;28;20029;-64
2022/07/23 13:40:58;;;;;;;11.30;9.20;;;;;;;;;;5032812;28;20356;-63
2022/07/23 13:43:25;;;;;;;10.77;8.65;;;;;;;;;;5034002;28;20039;-62
2022/07/23 13:45:52;;;;;;;10.55;9.02;;;;;;;;;;5031390;28;20410;-63
2022/07/23 13:48:18;;;;;;;9.80;8.25;;;;;;;;;;5033831;28;20040;-63
2022/07/23 13:50:44;;;;;;;9.43;8.45;;;;;;;;;;5034525;28;20039;-62
2022/07/23 13:53:13;;;;;;;9.63;8.65;;;;;;;;;;5034317;28;20052;-63
2022/07/23 13:55:39;;;;;;;10.60;8.73;;;;;;;;;;5039058;28;20037;-62
2022/07/23 13:58:07;;;;;;;10.63;8.35;;;;;;;;;;5032875;28;20049;-62
2022/07/23 14:00:34;;;;;;;9.93;8.45;;;;;;;;;;5028213;28;20108;-62
2022/07/23 14:03:00;;;;;;;9.45;8.30;;;;;;;;;;5027181;28;20680;-62
2022/07/23 14:05:26;;;;;;;10.52;8.63;;;;;;;;;;5029540;28;20052;-62
2022/07/23 14:07:52;;;;;;;11.27;8.32;;;;;;;;;;5025734;28;20104;-63
2022/07/23 14:10:20;;;;;;;9.73;8.70;;;;;;;;;;5027464;28;20113;-63
2022/07/23 14:12:46;;;;;;;;;;;;;;;;;;5030230;28;20021;-63
2022/07/23 14:15:12;;;;;;;9.75;8.73;;;;;;;;;;5024716;28;20310;-62
2022/07/23 14:17:39;;;;;;;10.32;8.80;;;;;;;;;;5023223;28;20071;-62
2022/07/23 14:20:06;;;;;;;9.00;7.95;;;;;;;;;;5027277;28;20044;-62
2022/07/23 14:22:31;;;;;;;12.95;10.05;;;;;;;;;;5026575;28;20026;-62
2022/07/23 14:24:58;;;;;;;12.60;9.63;;;;;;;;;;5024581;28;20104;-63
2022/07/23 14:27:24;;;;;;;14.25;9.80;;;;;;;;;;5029523;28;20038;-62
2022/07/23 14:29:50;;;;;;;14.23;10.02;;;;;;;;;;5025465;28;20076;-62
2022/07/23 14:32:15;;;;;;;17.83;11.60;;;;;;;;;;5024690;28;20026;-62